Time;durP1;ratioP1;P1;durP2;ratioP2;P2;SDS_P1;SDS_P2;PMS_P1;PMS_P2;Temp;Humidity;BMP_temperature;BMP_pressure;BME280_temperature;BME280_humidity;BME280_pressure;Samples;Min_cycle;Max_cycle;Signal;HPM_P1;HPM_P2
2021/09/01 00:01:54;;;;;;;;;;;20.70;67.80;;;;;;4994884;28;1667;-74
2021/09/01 00:04:20;;;;;;;;;;;20.60;67.70;;;;;;4970685;28;1650;-73
2021/09/01 00:06:45;;;;;;;;;;;20.60;67.80;;;;;;4991224;28;1369;-73
2021/09/01 00:09:11;;;;;;;;;;;20.60;67.80;;;;;;4967537;28;1277;-73
2021/09/01 00:11:36;;;;;;;;;;;20.60;67.80;;;;;;4986587;28;1252;-74
2021/09/01 00:14:02;;;;;;;;;;;20.60;67.90;;;;;;4968679;28;1299;-73
2021/09/01 00:16:28;;;;;;;;;;;20.60;67.90;;;;;;4986097;28;1256;-74
2021/09/01 00:19:12;;;;;;;;;;;20.60;68.00;;;;;;4949228;28;1891;-73
2021/09/01 00:21:37;;;;;;;;;;;20.60;68.00;;;;;;4968007;28;1063;-73
2021/09/01 00:24:03;;;;;;;;;;;20.60;68.10;;;;;;4967599;28;1417;-73
2021/09/01 00:26:28;;;;;;;;;;;20.60;68.10;;;;;;4970460;28;1269;-73
2021/09/01 00:28:54;;;;;;;;;;;20.60;68.10;;;;;;4969686;28;1289;-73
2021/09/01 00:31:19;;;;;;;;;;;20.60;68.20;;;;;;4983420;28;1252;-73
2021/09/01 00:33:45;;;;;;;;;;;20.60;68.20;;;;;;4985344;28;1355;-73
2021/09/01 00:36:10;;;;;;;;;;;20.60;68.20;;;;;;4963581;28;1412;-73
2021/09/01 00:38:36;;;;;;;;;;;20.60;68.20;;;;;;4983990;28;1963;-71
2021/09/01 00:41:02;;;;;;;;;;;20.60;68.30;;;;;;4967329;28;1225;-72
2021/09/01 00:43:27;;;;;;;;;;;20.60;68.40;;;;;;4967127;28;1273;-74
2021/09/01 00:45:52;;;;;;;;;;;20.60;68.40;;;;;;4970182;28;1257;-73
2021/09/01 00:48:18;;;;;;;;;;;20.60;68.40;;;;;;4985024;28;1249;-73
2021/09/01 00:50:45;;;;;;;;;;;20.60;68.40;;;;;;4985082;28;1253;-73
2021/09/01 00:53:10;;;;;;;;;;;20.60;68.50;;;;;;4984088;28;1300;-73
2021/09/01 00:55:36;;;;;;;;;;;20.60;68.50;;;;;;4965687;28;1230;-73
2021/09/01 00:58:01;;;;;;;;;;;20.60;68.50;;;;;;4957028;28;1461;-72
2021/09/01 01:00:41;;;;;;;;;;;20.60;68.50;;;;;;4973975;28;1914;-72
2021/09/01 01:03:06;;;;;;;;;;;20.60;68.50;;;;;;4974131;28;1425;-72
2021/09/01 01:05:32;;;;;;;;;;;20.60;68.60;;;;;;4974158;28;1342;-72
2021/09/01 01:07:57;;;;;;;;;;;20.60;68.60;;;;;;4974241;28;1278;-72
2021/09/01 01:10:23;;;;;;;;;;;20.60;68.60;;;;;;4957084;28;1407;-72
2021/09/01 01:12:48;;;;;;;;;;;20.60;68.60;;;;;;4974194;28;1435;-72
2021/09/01 01:15:13;;;;;;;;;;;20.60;68.70;;;;;;4973697;28;1049;-72
2021/09/01 01:17:39;;;;;;;;;;;20.60;68.70;;;;;;4974192;28;1070;-72
2021/09/01 01:20:05;;;;;;;;;;;20.60;68.70;;;;;;4974123;28;1907;-72
2021/09/01 01:22:30;;;;;;;;;;;20.60;68.70;;;;;;4974019;28;1356;-72
2021/09/01 01:25:03;;;;;;;;;;;20.60;68.70;;;;;;4956548;28;1353;-73
2021/09/01 01:27:32;;;;;;;;;;;20.60;68.80;;;;;;4952088;28;1451;-73
2021/09/01 01:30:02;;;;;;;;;;;20.60;68.80;;;;;;5004223;28;1080;-73
2021/09/01 01:32:28;;;;;;;;;;;20.60;68.80;;;;;;4976050;28;1444;-73
2021/09/01 01:34:53;;;;;;;;;;;20.60;68.80;;;;;;4993246;28;1354;-73
2021/09/01 01:37:19;;;;;;;;;;;20.60;68.90;;;;;;4993606;28;1370;-72
2021/09/01 01:39:44;;;;;;;;;;;20.60;68.90;;;;;;4993538;28;1911;-72
2021/09/01 01:42:10;;;;;;;;;;;20.60;68.90;;;;;;4993585;28;1263;-73
2021/09/01 01:44:35;;;;;;;;;;;20.60;68.90;;;;;;4993319;28;1341;-72
2021/09/01 01:47:01;;;;;;;;;;;20.60;68.90;;;;;;4995184;28;1316;-73
2021/09/01 01:49:26;;;;;;;;;;;20.60;68.90;;;;;;4981365;28;1395;-73
2021/09/01 01:51:52;;;;;;;;;;;20.60;69.00;;;;;;4999849;28;1289;-73
2021/09/01 01:54:17;;;;;;;;;;;20.60;69.00;;;;;;4999516;28;1479;-73
2021/09/01 01:59:45;;;;;;;;;;;20.60;69.00;;;;;;4999725;28;1899;-73
2021/09/01 02:02:11;;;;;;;;;;;20.60;69.00;;;;;;4981603;28;1305;-73
2021/09/01 02:04:36;;;;;;;;;;;20.60;69.00;;;;;;4998724;28;1342;-73
2021/09/01 02:07:02;;;;;;;;;;;20.60;69.00;;;;;;4997148;28;1279;-73
2021/09/01 02:09:27;;;;;;;;;;;20.60;69.00;;;;;;4979621;28;1364;-72
2021/09/01 02:11:53;;;;;;;;;;;20.60;69.00;;;;;;4997071;28;1262;-72
2021/09/01 02:14:18;;;;;;;;;;;20.60;69.00;;;;;;4997170;28;1182;-74
2021/09/01 02:16:43;;;;;;;;;;;20.60;69.10;;;;;;4997360;28;1417;-73
2021/09/01 02:19:09;;;;;;;;;;;20.60;69.10;;;;;;4997138;28;1948;-72
2021/09/01 02:21:37;;;;;;;;;;;20.60;69.10;;;;;;4996890;28;1344;-73
2021/09/01 02:24:02;;;;;;;;;;;20.60;69.10;;;;;;4996574;28;1269;-72
2021/09/01 02:26:28;;;;;;;;;;;20.60;69.20;;;;;;4979149;28;1331;-72
2021/09/01 02:28:54;;;;;;;;;;;20.60;69.20;;;;;;5003833;28;1275;-73
2021/09/01 02:31:19;;;;;;;;;;;20.60;69.20;;;;;;4998265;28;1407;-73
2021/09/01 02:33:44;;;;;;;;;;;20.60;69.20;;;;;;4996258;28;1365;-72
2021/09/01 02:36:10;;;;;;;;;;;20.60;69.20;;;;;;4996653;28;1336;-73
2021/09/01 02:38:35;;;;;;;;;;;20.60;69.20;;;;;;4997784;28;1907;-72
2021/09/01 02:41:01;;;;;;;;;;;20.60;69.30;;;;;;4997545;28;1257;-71
2021/09/01 02:43:26;;;;;;;;;;;20.60;69.30;;;;;;4996040;28;1269;-72
2021/09/01 02:45:52;;;;;;;;;;;20.60;69.30;;;;;;4996294;28;1320;-71
2021/09/01 02:48:17;;;;;;;;;;;20.60;69.30;;;;;;4996321;28;1346;-72
2021/09/01 02:50:42;;;;;;;;;;;20.60;69.30;;;;;;4996134;28;1334;-72
2021/09/01 02:53:08;;;;;;;;;;;20.60;69.40;;;;;;4995850;28;1323;-71
2021/09/01 02:55:33;;;;;;;;;;;20.60;69.40;;;;;;5001578;28;1348;-72
2021/09/01 02:57:59;;;;;;;;;;;20.60;69.30;;;;;;4995979;28;1317;-71
2021/09/01 03:00:24;;;;;;;;;;;20.60;69.40;;;;;;4996463;28;1906;-72
2021/09/01 03:02:50;;;;;;;;;;;20.60;69.40;;;;;;4998427;28;1284;-72
2021/09/01 03:05:15;;;;;;;;;;;20.60;70.20;;;;;;4997383;28;1403;-72
2021/09/01 03:07:40;;;;;;;;;;;20.60;69.50;;;;;;4998316;28;1288;-72
2021/09/01 03:10:06;;;;;;;;;;;20.60;69.40;;;;;;4996443;28;1297;-72
2021/09/01 03:12:31;;;;;;;;;;;20.60;69.50;;;;;;4995606;28;1267;-72
2021/09/01 03:14:57;;;;;;;;;;;20.60;69.50;;;;;;4995327;28;1300;-72
2021/09/01 03:17:22;;;;;;;;;;;20.60;69.50;;;;;;4995672;28;1332;-72
2021/09/01 03:19:48;;;;;;;;;;;20.60;69.50;;;;;;4995674;28;1962;-72
2021/09/01 03:22:13;;;;;;;;;;;20.60;69.50;;;;;;4995469;28;1312;-72
2021/09/01 03:24:38;;;;;;;;;;;20.60;69.50;;;;;;4977633;28;1211;-72
2021/09/01 03:27:04;;;;;;;;;;;20.60;69.60;;;;;;4995473;28;1282;-72
2021/09/01 03:29:29;;;;;;;;;;;20.60;69.60;;;;;;5006425;28;1328;-73
2021/09/01 03:31:55;;;;;;;;;;;20.60;69.60;;;;;;4995405;28;1061;-73
2021/09/01 03:34:21;;;;;;;;;;;20.60;69.60;;;;;;4995060;28;1208;-73
2021/09/01 03:36:46;;;;;;;;;;;20.60;69.70;;;;;;4977766;28;1255;-73
2021/09/01 03:39:12;;;;;;;;;;;20.60;69.60;;;;;;4995571;28;1906;-73
2021/09/01 03:41:37;;;;;;;;;;;20.60;69.60;;;;;;4978117;28;1255;-73
2021/09/01 03:44:02;;;;;;;;;;;20.60;70.40;;;;;;4994880;28;1255;-73
2021/09/01 03:46:28;;;;;;;;;;;20.60;69.60;;;;;;4977951;28;1274;-73
2021/09/01 03:48:53;;;;;;;;;;;20.60;69.60;;;;;;4995611;28;1277;-72
2021/09/01 03:51:19;;;;;;;;;;;20.60;69.60;;;;;;4995959;28;1275;-73
2021/09/01 03:53:44;;;;;;;;;;;20.60;69.70;;;;;;4995548;28;1312;-73
2021/09/01 03:56:10;;;;;;;;;;;20.60;69.70;;;;;;5000469;28;1108;-72
2021/09/01 03:58:35;;;;;;;;;;;20.60;69.60;;;;;;4994808;28;1903;-73
2021/09/01 04:01:00;;;;;;;;;;;20.60;69.70;;;;;;4995383;28;1261;-72
2021/09/01 04:03:26;;;;;;;;;;;20.60;69.70;;;;;;4994451;28;1934;-73
2021/09/01 04:05:51;;;;;;;;;;;20.60;69.70;;;;;;4994653;28;1290;-72
2021/09/01 04:08:17;;;;;;;;;;;20.60;70.40;;;;;;4994949;28;1317;-72
2021/09/01 04:10:42;;;;;;;;;;;20.60;69.70;;;;;;4994295;28;1313;-73
2021/09/01 04:13:07;;;;;;;;;;;20.60;69.70;;;;;;4994269;28;1298;-72
2021/09/01 04:15:33;;;;;;;;;;;20.60;69.70;;;;;;4994775;28;1292;-73
2021/09/01 04:17:58;;;;;;;;;;;20.60;69.70;;;;;;4994440;28;1356;-73
2021/09/01 04:20:24;;;;;;;;;;;20.60;69.70;;;;;;4994361;28;1950;-74
2021/09/01 04:22:49;;;;;;;;;;;20.60;70.50;;;;;;4976940;28;1332;-74
2021/09/01 04:25:15;;;;;;;;;;;20.60;69.80;;;;;;4994178;28;1275;-72
2021/09/01 04:27:40;;;;;;;;;;;20.60;69.80;;;;;;4994294;28;1069;-73
2021/09/01 04:30:06;;;;;;;;;;;20.60;69.80;;;;;;5004793;28;1575;-73
2021/09/01 04:32:31;;;;;;;;;;;20.60;69.80;;;;;;4994276;28;1288;-74
2021/09/01 04:34:56;;;;;;;;;;;20.60;69.80;;;;;;4993766;28;1481;-74
2021/09/01 04:37:22;;;;;;;;;;;20.60;69.70;;;;;;4994106;28;1332;-75
2021/09/01 04:39:47;;;;;;;;;;;20.60;69.80;;;;;;4976858;28;1899;-74
2021/09/01 04:42:13;;;;;;;;;;;20.60;69.80;;;;;;4994082;28;1322;-75
2021/09/01 04:44:38;;;;;;;;;;;20.60;69.80;;;;;;4993643;28;1321;-74
2021/09/01 04:47:03;;;;;;;;;;;20.60;69.80;;;;;;4994356;28;1340;-74
2021/09/01 04:49:29;;;;;;;;;;;20.60;69.90;;;;;;4993715;28;1325;-74
2021/09/01 04:51:54;;;;;;;;;;;20.60;69.90;;;;;;4994305;28;1053;-75
2021/09/01 04:54:20;;;;;;;;;;;20.60;69.80;;;;;;4987166;28;1178;-74
2021/09/01 04:56:45;;;;;;;;;;;20.60;69.80;;;;;;4998299;28;1208;-72
2021/09/01 04:59:11;;;;;;;;;;;20.60;69.90;;;;;;4963614;28;1887;-72
2021/09/01 05:01:36;;;;;;;;;;;20.60;69.80;;;;;;4993988;28;1258;-72
2021/09/01 05:04:01;;;;;;;;;;;20.60;69.90;;;;;;4980253;28;1716;-73
2021/09/01 05:06:27;;;;;;;;;;;20.60;69.90;;;;;;4964119;28;1221;-72
2021/09/01 05:08:53;;;;;;;;;;;20.60;69.90;;;;;;4987301;28;1220;-72
2021/09/01 05:11:18;;;;;;;;;;;20.60;69.90;;;;;;4986674;28;1105;-72
2021/09/01 05:13:44;;;;;;;;;;;20.60;69.90;;;;;;4974698;28;1282;-73
2021/09/01 05:16:09;;;;;;;;;;;20.60;69.90;;;;;;4986645;28;1061;-73
2021/09/01 05:18:35;;;;;;;;;;;20.60;69.90;;;;;;4980383;28;1962;-72
2021/09/01 05:21:00;;;;;;;;;;;20.60;69.90;;;;;;4981948;28;1180;-72
2021/09/01 05:23:29;;;;;;;;;;;20.60;69.90;;;;;;4991429;28;1260;-74
2021/09/01 05:25:59;;;;;;;;;;;20.50;69.90;;;;;;4964419;28;1319;-74
2021/09/01 05:28:27;;;;;;;;;;;20.60;70.00;;;;;;4980660;28;1325;-74
2021/09/01 05:30:53;;;;;;;;;;;20.60;70.00;;;;;;5000260;28;1107;-73
2021/09/01 05:33:19;;;;;;;;;;;20.60;70.00;;;;;;4992865;28;1337;-73
2021/09/01 05:35:44;;;;;;;;;;;20.60;70.00;;;;;;4993358;28;1388;-73
2021/09/01 05:38:10;;;;;;;;;;;20.60;70.00;;;;;;4993324;28;1333;-73
2021/09/01 05:40:36;;;;;;;;;;;20.60;70.00;;;;;;4993322;28;1902;-73
2021/09/01 05:43:01;;;;;;;;;;;20.60;70.00;;;;;;4993012;28;1337;-73
2021/09/01 05:45:26;;;;;;;;;;;20.60;70.00;;;;;;4981260;28;1110;-73
2021/09/01 05:47:52;;;;;;;;;;;20.60;70.00;;;;;;4956382;28;1327;-73
2021/09/01 05:50:17;;;;;;;;;;;20.60;70.00;;;;;;4970015;28;1260;-74
2021/09/01 05:52:43;;;;;;;;;;;20.60;70.00;;;;;;4993200;28;1354;-74
2021/09/01 05:55:11;;;;;;;;;;;20.60;70.10;;;;;;4980623;28;1277;-73
2021/09/01 05:57:37;;;;;;;;;;;20.60;70.10;;;;;;4986326;28;1096;-76
2021/09/01 06:00:07;;;;;;;;;;;20.60;70.00;;;;;;4969580;28;1965;-76
2021/09/01 06:02:33;;;;;;;;;;;20.50;69.50;;;;;;4963808;28;1277;-75
2021/09/01 06:04:58;;;;;;;;;;;20.50;68.90;;;;;;4979730;28;1120;-76
2021/09/01 06:07:24;;;;;;;;;;;20.50;68.90;;;;;;4968680;28;1081;-75
2021/09/01 06:09:49;;;;;;;;;;;20.60;69.00;;;;;;4969445;28;1732;-75
2021/09/01 06:12:16;;;;;;;;;;;20.50;68.90;;;;;;4963103;28;1136;-74
2021/09/01 06:14:41;;;;;;;;;;;20.50;68.60;;;;;;4979462;28;1296;-75
2021/09/01 06:17:07;;;;;;;;;;;20.50;68.50;;;;;;4973376;28;1289;-75
2021/09/01 06:19:32;;;;;;;;;;;20.50;68.50;;;;;;4973739;28;1952;-75
2021/09/01 06:21:58;;;;;;;;;;;20.50;68.50;;;;;;4975886;28;1116;-74
2021/09/01 06:24:23;;;;;;;;;;;20.50;68.40;;;;;;4965859;28;1870;-74
2021/09/01 06:26:49;;;;;;;;;;;20.50;68.20;;;;;;4967719;28;2387;-73
2021/09/01 06:29:14;;;;;;;;;;;20.50;68.30;;;;;;4986693;28;2078;-73
2021/09/01 06:31:40;;;;;;;;;;;20.50;68.00;;;;;;4991512;28;1330;-73
2021/09/01 06:34:06;;;;;;;;;;;20.50;67.90;;;;;;4990276;28;2009;-74
2021/09/01 06:36:31;;;;;;;;;;;20.50;68.00;;;;;;4995483;28;1333;-75
2021/09/01 06:38:57;;;;;;;;;;;20.50;67.90;;;;;;4978088;28;1965;-75
2021/09/01 06:41:22;;;;;;;;;;;20.50;68.70;;;;;;4995323;28;1301;-74
2021/09/01 06:43:48;;;;;;;;;;;20.50;68.00;;;;;;4976777;28;1692;-74
2021/09/01 06:46:13;;;;;;;;;;;20.50;68.10;;;;;;4991364;28;1490;-75
2021/09/01 06:48:39;;;;;;;;;;;20.50;68.30;;;;;;4996257;28;1232;-75
2021/09/01 06:51:04;;;;;;;;;;;20.50;68.80;;;;;;4979007;28;1146;-75
2021/09/01 06:53:29;;;;;;;;;;;20.50;68.00;;;;;;4994761;28;1303;-75
2021/09/01 06:55:55;;;;;;;;;;;20.50;68.00;;;;;;4975475;28;1127;-74
2021/09/01 06:58:20;;;;;;;;;;;20.50;67.90;;;;;;4995845;28;1443;-74
2021/09/01 07:00:46;;;;;;;;;;;20.50;68.00;;;;;;4978402;28;1910;-75
2021/09/01 07:03:11;;;;;;;;;;;20.50;68.00;;;;;;4978231;28;1282;-75
2021/09/01 07:05:37;;;;;;;;;;;20.50;68.10;;;;;;4995921;28;1140;-74
2021/09/01 07:08:12;;;;;;;;;;;20.50;68.00;;;;;;4978465;28;1418;-74
2021/09/01 07:10:37;;;;;;;;;;;20.50;68.00;;;;;;4995918;28;1297;-74
2021/09/01 07:13:03;;;;;;;;;;;20.50;68.00;;;;;;4995494;28;1359;-74
2021/09/01 07:15:28;;;;;;;;;;;20.50;68.10;;;;;;4961847;28;1366;-74
2021/09/01 07:17:53;;;;;;;;;;;20.50;68.20;;;;;;4995113;28;1078;-74
2021/09/01 07:20:21;;;;;;;;;;;20.50;68.10;;;;;;4983187;28;1954;-75
2021/09/01 07:22:46;;;;;;;;;;;20.50;68.00;;;;;;4981847;28;1205;-76
2021/09/01 07:25:12;;;;;;;;;;;20.50;68.10;;;;;;4975742;28;1288;-75
2021/09/01 07:27:37;;;;;;;;;;;20.50;68.20;;;;;;4976347;28;1309;-75
2021/09/01 07:30:03;;;;;;;;;;;20.50;68.30;;;;;;4987758;28;1085;-75
2021/09/01 07:32:28;;;;;;;;;;;20.50;68.20;;;;;;4995681;28;1150;-74
2021/09/01 07:34:54;;;;;;;;;;;20.50;68.10;;;;;;4994952;28;1309;-74
2021/09/01 07:37:19;;;;;;;;;;;20.50;68.20;;;;;;4995065;28;1308;-74
2021/09/01 07:39:45;;;;;;;;;;;20.50;68.30;;;;;;4976343;28;1956;-74
2021/09/01 07:42:10;;;;;;;;;;;20.50;68.40;;;;;;4988131;28;1164;-74
2021/09/01 07:44:36;;;;;;;;;;;20.50;68.50;;;;;;4980643;28;1381;-74
2021/09/01 07:47:01;;;;;;;;;;;20.50;68.50;;;;;;4994990;28;1324;-74
2021/09/01 07:49:28;;;;;;;;;;;20.50;68.60;;;;;;4965713;28;1379;-74
2021/09/01 07:51:54;;;;;;;;;;;20.50;68.60;;;;;;4995219;28;1308;-74
2021/09/01 07:54:20;;;;;;;;;;;20.50;68.50;;;;;;4977416;28;1177;-73
2021/09/01 07:56:45;;;;;;;;;;;20.50;68.50;;;;;;5000423;28;1183;-74
2021/09/01 07:59:11;;;;;;;;;;;20.50;68.70;;;;;;4971176;28;1902;-74
2021/09/01 08:01:36;;;;;;;;;;;20.50;68.60;;;;;;4958222;28;1329;-74
2021/09/01 08:04:01;;;;;;;;;;;20.50;68.70;;;;;;4974897;28;1333;-74
2021/09/01 08:06:27;;;;;;;;;;;20.50;68.70;;;;;;4966279;28;1924;-74
2021/09/01 08:08:52;;;;;;;;;;;20.50;68.70;;;;;;4994466;28;952;-73
2021/09/01 08:11:18;;;;;;;;;;;20.50;68.70;;;;;;4977391;28;1113;-73
2021/09/01 08:13:43;;;;;;;;;;;20.50;68.70;;;;;;4993905;28;1295;-73
2021/09/01 08:16:09;;;;;;;;;;;20.50;68.70;;;;;;4994604;28;1372;-73
2021/09/01 08:18:34;;;;;;;;;;;20.50;68.80;;;;;;4994235;28;1903;-72
2021/09/01 08:20:59;;;;;;;;;;;20.50;68.70;;;;;;4993775;28;1094;-72
2021/09/01 08:23:25;;;;;;;;;;;20.50;68.90;;;;;;4993388;28;1334;-74
2021/09/01 08:25:50;;;;;;;;;;;20.50;68.90;;;;;;4994227;28;1327;-74
2021/09/01 08:28:16;;;;;;;;;;;20.50;68.80;;;;;;4978767;28;1312;-74
2021/09/01 08:30:41;;;;;;;;;;;20.50;68.90;;;;;;5002761;28;1284;-74
2021/09/01 08:33:07;;;;;;;;;;;20.50;69.70;;;;;;4976347;28;1310;-74
2021/09/01 08:35:32;;;;;;;;;;;20.50;68.90;;;;;;4992150;28;2265;-74
2021/09/01 08:37:58;;;;;;;;;;;20.50;68.90;;;;;;4993888;28;1321;-74
2021/09/01 08:40:23;;;;;;;;;;;20.50;68.90;;;;;;4994067;28;1958;-74
2021/09/01 08:42:48;;;;;;;;;;;20.50;68.90;;;;;;4993729;28;1313;-74
2021/09/01 08:45:14;;;;;;;;;;;20.50;69.00;;;;;;4974253;28;1928;-74
2021/09/01 08:47:39;;;;;;;;;;;20.50;69.10;;;;;;4993911;28;1618;-74
2021/09/01 08:50:06;;;;;;;;;;;20.50;69.20;;;;;;5005347;28;1218;-73
2021/09/01 08:52:31;;;;;;;;;;;20.50;69.10;;;;;;4977922;28;1354;-73
2021/09/01 08:54:56;;;;;;;;;;;20.50;69.00;;;;;;4989783;28;1136;-73
2021/09/01 08:57:22;;;;;;;;;;;20.50;69.10;;;;;;4989750;28;1093;-75
2021/09/01 08:59:47;;;;;;;;;;;20.50;69.10;;;;;;4985491;28;1914;-75
2021/09/01 09:02:13;;;;;;;;;;;20.50;69.30;;;;;;4980986;28;1132;-74
2021/09/01 09:04:38;;;;;;;;;;;20.50;69.50;;;;;;4964911;28;1194;-74
2021/09/01 09:07:04;;;;;;;;;;;20.50;70.10;;;;;;4991570;28;1062;-74
2021/09/01 09:09:31;;;;;;;;;;;20.50;70.20;;;;;;4982961;28;1326;-73
2021/09/01 09:11:56;;;;;;;;;;;20.50;69.90;;;;;;4956989;28;1329;-73
2021/09/01 09:14:25;;;;;;;;;;;20.60;69.50;;;;;;4973797;28;1212;-73
2021/09/01 09:17:00;;;;;;;;;;;20.60;69.20;;;;;;4974351;28;1345;-73
2021/09/01 09:19:41;;;;;;;;;;;20.60;69.80;;;;;;4986821;28;1914;-74
2021/09/01 09:22:06;;;;;;;;;;;20.60;70.20;;;;;;4982309;28;1069;-73
2021/09/01 09:24:33;;;;;;;;;;;20.60;70.00;;;;;;4979910;28;1224;-72
2021/09/01 09:26:59;;;;;;;;;;;20.60;70.50;;;;;;4993675;28;1280;-72
2021/09/01 09:29:24;;;;;;;;;;;20.60;70.00;;;;;;5002778;28;1324;-72
2021/09/01 09:32:06;;;;;;;;;;;20.60;69.80;;;;;;4993541;28;1370;-72
2021/09/01 09:34:38;;;;;;;;;;;20.60;69.70;;;;;;4975648;28;1718;-71
2021/09/01 09:37:04;;;;;;;;;;;20.60;69.60;;;;;;4981883;28;1147;-75
2021/09/01 09:39:42;;;;;;;;;;;20.50;69.90;;;;;;4991824;28;1906;-75
2021/09/01 09:42:08;;;;;;;;;;;20.60;69.90;;;;;;4980389;28;1384;-74
2021/09/01 09:44:34;;;;;;;;;;;20.60;69.90;;;;;;4962776;28;1299;-74
2021/09/01 09:46:59;;;;;;;;;;;20.60;70.10;;;;;;4993562;28;1378;-72
2021/09/01 09:49:34;;;;;;;;;;;20.50;70.00;;;;;;4990243;28;1243;-72
2021/09/01 09:51:59;;;;;;;;;;;20.50;69.90;;;;;;4975765;28;1385;-74
2021/09/01 09:54:25;;;;;;;;;;;20.60;70.30;;;;;;4975603;28;1286;-73
2021/09/01 09:56:52;;;;;;;;;;;20.60;70.50;;;;;;4980375;28;1299;-73
2021/09/01 09:59:18;;;;;;;;;;;20.60;70.50;;;;;;4959504;28;1940;-73
2021/09/01 10:01:44;;;;;;;;;;;20.60;70.50;;;;;;4975847;28;1285;-73
2021/09/01 10:04:09;;;;;;;;;;;20.60;70.70;;;;;;4975037;28;1299;-73
2021/09/01 10:06:35;;;;;;;;;;;20.60;70.60;;;;;;4946248;28;1320;-73
2021/09/01 10:09:01;;;;;;;;;;;20.60;70.70;;;;;;4971186;28;1054;-72
2021/09/01 10:11:26;;;;;;;;;;;20.60;70.80;;;;;;4977553;28;1325;-72
2021/09/01 10:13:52;;;;;;;;;;;20.60;71.10;;;;;;4977139;28;1208;-74
2021/09/01 10:16:20;;;;;;;;;;;20.60;71.30;;;;;;4977198;28;1103;-74
2021/09/01 10:18:55;;;;;;;;;;;20.60;71.20;;;;;;4984212;28;1949;-74
2021/09/01 10:21:23;;;;;;;;;;;20.60;71.30;;;;;;4981520;28;1346;-72
2021/09/01 10:23:48;;;;;;;;;;;20.60;71.30;;;;;;4985727;28;1302;-73
2021/09/01 10:26:27;;;;;;;;;;;20.60;71.30;;;;;;4977214;28;1301;-71
2021/09/01 10:28:54;;;;;;;;;;;20.60;71.40;;;;;;4994575;28;1104;-76
2021/09/01 10:31:23;;;;;;;;;;;20.60;71.40;;;;;;4977269;28;1132;-75
2021/09/01 10:34:01;;;;;;;;;;;20.60;71.40;;;;;;4970341;28;1283;-74
2021/09/01 10:36:27;;;;;;;;;;;20.60;71.60;;;;;;4950236;28;1173;-76
2021/09/01 10:38:52;;;;;;;;;;;20.60;71.60;;;;;;4984116;28;1906;-73
2021/09/01 10:41:27;;;;;;;;;;;20.60;71.60;;;;;;4972199;28;1176;-76
2021/09/01 10:43:54;;;;;;;;;;;20.60;71.70;;;;;;4989281;28;1365;-76
2021/09/01 10:46:19;;;;;;;;;;;20.60;71.60;;;;;;4950782;28;1319;-76
2021/09/01 10:48:54;;;;;;;;;;;20.60;71.80;;;;;;4965754;28;1125;-76
2021/09/01 10:51:29;;;;;;;;;;;20.60;72.00;;;;;;4996314;28;1179;-75
2021/09/01 10:53:54;;;;;;;;;;;20.60;72.00;;;;;;4965137;28;1277;-76
2021/09/01 10:56:20;;;;;;;;;;;20.60;71.70;;;;;;5002439;28;1124;-76
2021/09/01 10:58:45;;;;;;;;;;;20.60;71.70;;;;;;4982987;28;1895;-75
2021/09/01 11:01:12;;;;;;;;;;;20.60;71.90;;;;;;4969276;28;1061;-75
2021/09/01 11:03:41;;;;;;;;;;;20.60;72.20;;;;;;4961852;28;1217;-76
2021/09/01 11:06:11;;;;;;;;;;;20.60;72.50;;;;;;4978581;28;845;-76
2021/09/01 11:08:36;;;;;;;;;;;20.70;72.70;;;;;;4970535;28;1496;-77
2021/09/01 11:11:02;;;;;;;;;;;20.70;72.70;;;;;;4994467;28;1132;-75
2021/09/01 11:13:40;;;;;;;;;;;20.70;73.30;;;;;;4987420;28;1383;-76
2021/09/01 11:16:16;;;;;;;;;;;20.70;72.60;;;;;;4953686;28;1324;-74
2021/09/01 11:18:57;;;;;;;;;;;20.70;72.60;;;;;;4955789;28;1956;-75
2021/09/01 11:21:22;;;;;;;;;;;20.70;72.80;;;;;;4970350;28;1155;-76
2021/09/01 11:23:48;;;;;;;;;;;20.70;72.10;;;;;;4983225;28;1361;-75
2021/09/01 11:26:13;;;;;;;;;;;20.70;72.10;;;;;;4978212;28;1080;-75
2021/09/01 11:28:39;;;;;;;;;;;20.70;72.30;;;;;;5000595;28;1152;-75
2021/09/01 11:31:17;;;;;;;;;;;20.80;72.00;;;;;;4997452;28;1079;-74
2021/09/01 11:33:42;;;;;;;;;;;20.80;72.00;;;;;;4968457;28;1317;-74
2021/09/01 11:36:07;;;;;;;;;;;20.70;71.70;;;;;;4991762;28;1424;-75
2021/09/01 11:38:33;;;;;;;;;;;20.80;72.40;;;;;;4985974;28;1105;-74
2021/09/01 11:40:58;;;;;;;;;;;20.80;72.50;;;;;;4982481;28;1906;-75
2021/09/01 11:43:25;;;;;;;;;;;20.80;73.50;;;;;;4967284;28;1299;-75
2021/09/01 11:45:51;;;;;;;;;;;20.80;72.00;;;;;;4992153;28;1231;-75
2021/09/01 11:48:16;;;;;;;;;;;20.80;72.40;;;;;;4977568;28;1074;-75
2021/09/01 11:50:42;;;;;;;;;;;20.80;72.20;;;;;;4995276;28;1021;-75
2021/09/01 11:53:11;;;;;;;;;;;20.80;73.20;;;;;;4967568;28;1288;-75
2021/09/01 11:55:36;;;;;;;;;;;20.90;73.90;;;;;;4980186;28;1118;-75
2021/09/01 11:58:15;;;;;;;;;;;21.10;75.10;;;;;;4967677;28;1057;-75
2021/09/01 12:00:41;;;;;;;;;;;21.20;75.90;;;;;;4970760;28;1910;-75
2021/09/01 12:03:07;;;;;;;;;;;21.30;77.20;;;;;;4969429;28;1265;-75
2021/09/01 12:05:33;;;;;;;;;;;21.40;75.40;;;;;;4964122;28;1072;-75
2021/09/01 12:07:58;;;;;;;;;;;21.50;74.40;;;;;;4966023;28;1065;-75
2021/09/01 12:10:24;;;;;;;;;;;21.40;75.80;;;;;;4992754;28;1184;-76
2021/09/01 12:12:55;;;;;;;;;;;21.50;76.90;;;;;;4978079;28;1378;-75
2021/09/01 12:15:21;;;;;;;;;;;21.50;78.10;;;;;;4967014;28;1309;-75
2021/09/01 12:18:02;;;;;;;;;;;21.40;76.00;;;;;;4961808;28;1337;-74
2021/09/01 12:20:28;;;;;;;;;;;21.40;75.00;;;;;;4953912;28;1903;-74
2021/09/01 12:22:53;;;;;;;;;;;21.30;74.10;;;;;;4958123;28;1341;-75
2021/09/01 12:25:24;;;;;;;;;;;21.30;73.50;;;;;;4946414;28;1151;-74
2021/09/01 12:28:00;;;;;;;;;;;21.20;73.00;;;;;;4958130;28;1309;-75
2021/09/01 12:30:29;;;;;;;;;;;21.10;72.40;;;;;;4974393;28;1280;-74
2021/09/01 12:32:57;;;;;;;;;;;21.10;72.00;;;;;;4982918;28;1369;-74
2021/09/01 12:35:24;;;;;;;;;;;21.10;71.60;;;;;;4962236;28;1354;-75
2021/09/01 12:37:50;;;;;;;;;;;21.00;71.40;;;;;;4989982;28;1301;-75
2021/09/01 12:40:15;;;;;;;;;;;21.00;71.50;;;;;;4965889;28;1971;-75
2021/09/01 12:42:43;;;;;;;;;;;20.90;71.30;;;;;;4984371;28;1192;-75
2021/09/01 12:45:09;;;;;;;;;;;20.90;71.20;;;;;;4959885;28;1353;-74
2021/09/01 12:47:35;;;;;;;;;;;20.90;71.30;;;;;;4967545;28;1493;-75
2021/09/01 12:50:01;;;;;;;;;;;20.90;71.30;;;;;;4970456;28;1384;-75
2021/09/01 12:52:26;;;;;;;;;;;20.90;71.40;;;;;;4983420;28;1780;-75
2021/09/01 12:54:53;;;;;;;;;;;20.80;71.30;;;;;;4968548;28;1257;-75
2021/09/01 12:57:18;;;;;;;;;;;20.80;71.20;;;;;;4989311;28;1144;-75
2021/09/01 12:59:43;;;;;;;;;;;20.80;71.10;;;;;;4965873;28;1919;-75
2021/09/01 13:02:09;;;;;;;;;;;20.80;71.00;;;;;;4968366;28;1269;-75
2021/09/01 13:04:35;;;;;;;;;;;20.80;70.90;;;;;;4975559;28;1321;-75
2021/09/01 13:07:00;;;;;;;;;;;20.80;71.60;;;;;;4976171;28;1117;-75
2021/09/01 13:09:25;;;;;;;;;;;20.80;70.90;;;;;;4993736;28;1109;-74
2021/09/01 13:11:51;;;;;;;;;;;20.70;70.90;;;;;;4943910;28;1140;-74
2021/09/01 13:14:16;;;;;;;;;;;20.80;71.10;;;;;;4980078;28;1236;-74
2021/09/01 13:16:45;;;;;;;;;;;20.70;71.10;;;;;;4970855;28;1168;-74
2021/09/01 13:19:10;;;;;;;;;;;20.70;71.10;;;;;;4969174;28;1952;-74
2021/09/01 13:21:36;;;;;;;;;;;20.70;71.10;;;;;;4982429;28;1304;-74
2021/09/01 13:24:01;;;;;;;;;;;20.70;71.20;;;;;;4967422;28;1314;-74
2021/09/01 13:26:27;;;;;;;;;;;20.70;71.20;;;;;;4964210;28;1373;-73
2021/09/01 13:28:52;;;;;;;;;;;20.70;71.10;;;;;;4985754;28;1461;-72
2021/09/01 13:31:18;;;;;;;;;;;20.70;71.10;;;;;;4985118;28;1337;-73
2021/09/01 13:33:44;;;;;;;;;;;20.70;71.10;;;;;;4982027;28;1345;-73
2021/09/01 13:36:09;;;;;;;;;;;20.70;71.10;;;;;;4982387;28;1121;-73
2021/09/01 13:38:35;;;;;;;;;;;20.70;71.20;;;;;;4983356;28;1462;-74
2021/09/01 13:41:00;;;;;;;;;;;20.70;71.20;;;;;;4965504;28;1907;-74
2021/09/01 13:43:26;;;;;;;;;;;20.70;71.00;;;;;;4971599;28;1320;-73
2021/09/01 13:45:51;;;;;;;;;;;20.70;70.90;;;;;;4990570;28;1356;-74
2021/09/01 13:48:17;;;;;;;;;;;20.70;70.80;;;;;;4970426;28;1322;-74
2021/09/01 13:50:42;;;;;;;;;;;20.70;70.90;;;;;;4974825;28;1317;-74
2021/09/01 13:53:08;;;;;;;;;;;20.80;71.10;;;;;;4988245;28;1257;-74
2021/09/01 13:55:33;;;;;;;;;;;20.80;71.40;;;;;;4977415;28;1156;-74
2021/09/01 13:58:01;;;;;;;;;;;20.80;71.60;;;;;;4970182;28;1116;-74
2021/09/01 14:00:31;;;;;;;;;;;20.80;71.50;;;;;;4973628;28;1978;-74
2021/09/01 14:02:57;;;;;;;;;;;20.80;71.20;;;;;;4971206;28;1280;-74
2021/09/01 14:05:22;;;;;;;;;;;20.80;71.50;;;;;;4983764;28;1140;-74
2021/09/01 14:07:47;;;;;;;;;;;20.80;71.80;;;;;;4959176;28;1788;-75
2021/09/01 14:10:13;;;;;;;;;;;20.80;71.20;;;;;;4997132;28;1086;-74
2021/09/01 14:12:39;;;;;;;;;;;20.80;71.60;;;;;;4997502;28;1371;-75
2021/09/01 14:15:05;;;;;;;;;;;20.90;71.90;;;;;;4978928;28;1809;-74
2021/09/01 14:17:31;;;;;;;;;;;20.90;71.80;;;;;;4996464;28;1092;-74
2021/09/01 14:19:56;;;;;;;;;;;20.90;71.90;;;;;;4962626;28;1894;-74
2021/09/01 14:22:22;;;;;;;;;;;20.90;71.60;;;;;;4979262;28;1073;-75
2021/09/01 14:24:47;;;;;;;;;;;20.90;71.90;;;;;;4975586;28;1436;-75
2021/09/01 14:27:12;;;;;;;;;;;20.90;72.00;;;;;;4994852;28;1032;-75
2021/09/01 14:29:42;;;;;;;;;;;21.00;72.90;;;;;;5002148;28;1099;-75